Avilla, Missouri
Current Conditions -  °F | °C
As of 3:53 AM on Thursday 29 Jan 2015 (Local Time) from KJLN Reporting Station
Clear Clear  
Wind Chill: 51°   Ceiling: Unl
Heat Index: 51°   Visibility: 10mi
Dew Point: 35°   Wind: 13mph
Humidity: 54%   Direction: 320°NW
Pressure: 30.04"   Gusts: 23mph
Location:  37.2°N, 94.13°W
Report Text: KJLN 290953Z AUTO 32011G20KT 10SM CLR 11/02 A3004 RMK AO2 SLP166 T01060017
Loading
Personal Weather Stations






























Interactive Weather Map New forecast layout! Learn more

10-Day Weather Forecast

Advertisements
Track Severe Weather on mobile